Terminal Aerodrome Forecast
Issued by NWS Newport/Morehead City, NC

Home | Current Version | Previous Version | Text Only | Print | Product List | Glossary On
Versions: 1 2 3 4 5 6 7 8 9 10 11 12 13 14 15 16 17
000
FTUS42 KMHX 040320 AAA
TAFEWN
TAF AMD
KEWN 040320Z 0403/0424 18005KT 5SM -RADZ BR OVC003 WS020/22040KT
     FM040600 22009KT 2SM BR OVC003
     FM041430 22012G18KT P6SM SCT007 OVC015
     FM041800 22015G22KT P6SM SCT025 BKN040=

USA.gov is the U.S. government's official web portal to all federal, state and local government web resources and services.